Time;durP1;ratioP1;P1;durP2;ratioP2;P2;SDS_P1;SDS_P2;PMS_P1;PMS_P2;Temp;Humidity;BMP_temperature;BMP_pressure;BME280_temperature;BME280_humidity;BME280_pressure;Samples;Min_cycle;Max_cycle;Signal;HPM_P1;HPM_P2
2023/09/17 00:01:16;;;;;;;15.80;13.70;;;;;;;20.72;100.00;100605.47;5078344;28;20450;-81
2023/09/17 00:03:43;;;;;;;19.25;14.45;;;;;;;20.57;100.00;100589.09;5078231;28;20122;-81
2023/09/17 00:06:10;;;;;;;17.50;13.77;;;;;;;20.60;100.00;100601.94;5077237;28;20127;-81
2023/09/17 00:08:39;;;;;;;18.90;14.20;;;;;;;20.69;100.00;100608.59;5080120;28;20143;-80
2023/09/17 00:11:08;;;;;;;24.33;14.73;;;;;;;20.68;100.00;100606.97;5079831;28;20406;-81
2023/09/17 00:13:35;;;;;;;17.05;15.00;;;;;;;20.52;100.00;100611.03;5077370;28;20052;-81
2023/09/17 00:16:02;;;;;;;19.70;15.55;;;;;;;20.52;100.00;100610.22;5078942;28;20119;-83
2023/09/17 00:18:31;;;;;;;18.80;14.05;;;;;;;20.65;100.00;100623.34;5078599;28;20127;-82
2023/09/17 00:20:58;;;;;;;20.85;13.10;;;;;;;20.63;100.00;100620.09;5078598;28;20136;-83
2023/09/17 00:23:24;;;;;;;24.67;14.95;;;;;;;20.58;100.00;100614.66;5078542;28;20053;-82
2023/09/17 00:25:51;;;;;;;20.80;15.00;;;;;;;20.50;100.00;100607.78;5078459;28;20152;-82
2023/09/17 00:28:18;;;;;;;19.10;14.48;;;;;;;20.54;100.00;100602.81;5078416;28;20060;-80
2023/09/17 00:30:44;;;;;;;18.83;14.93;;;;;;;20.49;100.00;100597.34;5077831;28;20135;-83
2023/09/17 00:33:11;;;;;;;20.55;15.25;;;;;;;20.48;100.00;100601.06;5077833;28;20076;-81
2023/09/17 00:35:39;;;;;;;18.23;14.90;;;;;;;20.46;100.00;100608.44;5078246;28;20083;-82
2023/09/17 00:38:05;;;;;;;18.20;14.75;;;;;;;20.41;100.00;100610.94;5082810;28;20127;-82
2023/09/17 00:40:34;;;;;;;18.35;14.32;;;;;;;20.36;100.00;100600.13;5082358;28;20080;-82
2023/09/17 00:43:01;;;;;;;19.85;15.07;;;;;;;20.30;100.00;100585.91;5081990;28;20056;-80
2023/09/17 00:45:29;;;;;;;20.33;16.10;;;;;;;20.25;100.00;100588.41;5081638;28;20482;-81
2023/09/17 00:47:56;;;;;;;19.40;15.15;;;;;;;20.31;100.00;100592.84;5080928;28;20056;-82
2023/09/17 00:50:22;;;;;;;19.98;15.70;;;;;;;20.27;100.00;100593.50;5081055;28;20135;-81
2023/09/17 00:52:51;;;;;;;19.02;15.15;;;;;;;20.20;100.00;100583.75;5081122;28;20048;-83
2023/09/17 00:55:31;;;;;;;;;;;;;;;;;;;;;
2023/09/17 00:58:39;;;;;;;20.00;15.65;;;;;;;20.20;100.00;100569.66;5074600;28;20131;-82
2023/09/17 01:01:55;;;;;;;16.23;14.52;;;;;;;20.09;100.00;100568.53;5080062;28;20052;-83
2023/09/17 01:04:39;;;;;;;18.17;14.77;;;;;;;20.25;100.00;100576.97;5079276;28;20106;-82
2023/09/17 01:07:08;;;;;;;16.83;14.82;;;;;;;20.22;100.00;100562.28;5078798;28;20071;-80
2023/09/17 01:09:43;;;;;;;19.30;15.38;;;;;;;20.24;100.00;100568.19;5086708;28;20048;-80
2023/09/17 01:12:16;;;;;;;17.85;15.05;;;;;;;20.03;100.00;100558.78;5075236;28;20127;-80
2023/09/17 01:14:52;;;;;;;18.50;16.50;;;;;;;19.95;100.00;100553.75;5081298;28;20417;-80
2023/09/17 01:20:56;;;;;;;22.55;18.25;;;;;;;19.66;100.00;100533.19;5070416;28;20036;-82
2023/09/17 01:27:23;;;;;;;22.65;18.17;;;;;;;19.61;100.00;100549.78;4962049;28;20390;-81
2023/09/17 01:29:54;;;;;;;24.10;19.27;;;;;;;19.63;100.00;100544.25;5008918;28;20412;-82
2023/09/17 01:32:57;;;;;;;22.73;19.58;;;;;;;19.67;100.00;100553.41;5079947;28;20048;-82
2023/09/17 01:42:49;;;;;;;21.40;17.27;;;;;;;20.00;100.00;100577.00;5075513;28;20048;-80
2023/09/17 01:46:16;;;;;;;21.67;17.15;;;;;;;19.88;100.00;100555.66;5080466;28;20071;-80
2023/09/17 01:52:20;;;;;;;19.50;16.70;;;;;;;20.00;100.00;100579.66;5012875;28;20089;-82
2023/09/17 02:02:18;;;;;;;19.23;16.83;;;;;;;20.03;100.00;100561.44;4984761;28;20486;-81
2023/09/17 02:05:34;;;;;;;17.70;15.68;;;;;;;20.05;100.00;100532.00;5080342;28;20498;-82
2023/09/17 02:08:37;;;;;;;22.25;16.50;;;;;;;19.84;100.00;100526.09;5077247;28;20052;-83
2023/09/17 02:14:41;;;;;;;19.85;16.73;;;;;;;19.65;100.00;100535.03;4979736;28;20069;-84
2023/09/17 02:25:12;;;;;;;20.30;18.02;;;;;;;19.79;100.00;100562.28;4961368;28;20051;-84
2023/09/17 02:31:16;;;;;;;22.27;18.20;;;;;;;19.78;100.00;100558.81;4930466;29;20056;-84
2023/09/17 02:36:47;;;;;;;21.70;19.40;;;;;;;19.86;100.00;100565.69;5030013;28;20545;-83
2023/09/17 02:39:18;;;;;;;21.98;18.65;;;;;;;19.78;100.00;100555.34;5038346;28;20053;-84
2023/09/17 02:41:47;;;;;;;24.90;19.48;;;;;;;19.87;100.00;100569.94;5065218;28;20052;-84
2023/09/17 02:44:20;;;;;;;21.42;18.33;;;;;;;19.87;100.00;100554.03;5080709;28;20484;-84
2023/09/17 02:46:52;;;;;;;;;;;;;;;20.04;100.00;100579.00;5080552;28;20049;-84
2023/09/17 02:49:26;;;;;;;25.67;18.15;;;;;;;19.92;100.00;100561.34;5078425;28;19932;-83
2023/09/17 02:51:55;;;;;;;21.70;18.40;;;;;;;19.92;100.00;100567.47;5077254;28;20131;-84
2023/09/17 02:54:28;;;;;;;20.90;18.65;;;;;;;19.91;100.00;100573.81;5080904;28;20049;-84
2023/09/17 02:57:41;;;;;;;25.60;19.65;;;;;;;19.96;100.00;100579.28;5083173;28;20052;-84
2023/09/17 03:09:35;;;;;;;24.23;19.38;;;;;;;19.91;100.00;100565.84;5064469;22;20183;-84
2023/09/17 03:12:01;;;;;;;21.67;18.98;;;;;;;19.90;100.00;100561.56;5079849;28;20048;-85
2023/09/17 03:14:28;;;;;;;21.17;18.83;;;;;;;19.81;100.00;100560.22;5081237;28;20059;-85
2023/09/17 03:16:55;;;;;;;22.85;19.17;;;;;;;19.81;100.00;100557.56;5082526;28;20072;-87
2023/09/17 03:19:21;;;;;;;21.92;18.48;;;;;;;19.86;100.00;100555.88;5080407;28;20048;-86
2023/09/17 03:21:49;;;;;;;23.55;20.27;;;;;;;19.80;100.00;100554.09;5063232;28;20476;-85
2023/09/17 03:24:16;;;;;;;25.75;21.20;;;;;;;19.71;100.00;100562.56;5061871;28;20458;-83
2023/09/17 03:26:43;;;;;;;25.25;21.05;;;;;;;19.73;100.00;100565.81;5068602;28;20083;-85
2023/09/17 03:29:10;;;;;;;23.73;20.13;;;;;;;19.69;100.00;100560.13;5068880;28;20044;-83
2023/09/17 03:31:37;;;;;;;24.42;21.45;;;;;;;19.68;100.00;100560.34;5062080;28;20073;-84
2023/09/17 03:34:04;;;;;;;22.98;20.33;;;;;;;19.70;100.00;100559.09;5066073;28;20411;-83
2023/09/17 03:36:30;;;;;;;26.98;20.17;;;;;;;19.71;100.00;100554.59;5066643;28;20082;-83
2023/09/17 03:39:00;;;;;;;24.30;20.20;;;;;;;19.79;100.00;100556.97;5062100;28;20053;-84
2023/09/17 03:41:27;;;;;;;25.63;20.40;;;;;;;19.76;100.00;100557.41;5067931;28;20120;-82
2023/09/17 03:43:54;;;;;;;26.88;21.02;;;;;;;19.71;100.00;100550.09;5062086;28;20052;-84
2023/09/17 03:46:21;;;;;;;23.73;21.17;;;;;;;19.61;100.00;100549.78;5065004;28;20044;-84
2023/09/17 03:48:47;;;;;;;26.98;22.45;;;;;;;19.56;100.00;100552.25;5065154;28;20044;-84
2023/09/17 03:51:14;;;;;;;27.15;22.63;;;;;;;19.52;100.00;100543.91;5067303;28;20127;-84
2023/09/17 03:53:41;;;;;;;26.63;23.05;;;;;;;19.56;100.00;100549.63;5064683;28;20068;-83
2023/09/17 03:56:09;;;;;;;35.15;25.55;;;;;;;19.51;100.00;100544.94;5062198;28;20070;-85
2023/09/17 03:58:35;;;;;;;30.90;24.73;;;;;;;19.48;100.00;100544.53;5057923;28;20120;-84
2023/09/17 04:01:03;;;;;;;29.50;23.75;;;;;;;19.48;100.00;100545.34;5060064;28;20049;-84
2023/09/17 04:03:29;;;;;;;34.53;24.42;;;;;;;19.45;100.00;100535.16;5062576;28;20099;-83
2023/09/17 04:06:18;;;;;;;30.83;23.33;;;;;;;19.51;100.00;100541.47;5065089;28;20147;-83
2023/09/17 04:09:04;;;;;;;28.25;23.08;;;;;;;19.50;100.00;100532.69;5063887;28;20049;-83
2023/09/17 04:11:52;;;;;;;29.73;24.15;;;;;;;19.70;100.00;100552.97;5055178;28;20045;-84
2023/09/17 04:14:58;;;;;;;31.08;22.35;;;;;;;19.67;100.00;100553.41;5061600;28;20048;-84
2023/09/17 04:20:31;;;;;;;29.10;23.48;;;;;;;19.55;100.00;100551.44;5058166;28;20057;-85
2023/09/17 04:22:58;;;;;;;30.85;25.52;;;;;;;19.48;100.00;100533.91;5055256;28;20201;-82
2023/09/17 04:25:25;;;;;;;32.17;24.25;;;;;;;19.52;100.00;100535.97;5058505;28;20056;-84
2023/09/17 04:27:54;;;;;;;29.45;24.73;;;;;;;19.59;100.00;100545.72;5065963;28;20358;-83
2023/09/17 04:30:20;;;;;;;32.45;24.42;;;;;;;19.49;100.00;100540.84;5059061;28;20080;-83
2023/09/17 04:32:49;;;;;;;29.80;25.02;;;;;;;19.48;100.00;100539.22;5059925;28;20076;-83
2023/09/17 04:35:17;;;;;;;29.83;23.55;;;;;;;19.49;100.00;100541.66;5058613;28;20088;-83
2023/09/17 04:37:46;;;;;;;30.17;24.88;;;;;;;19.51;100.00;100544.94;5059378;28;20049;-84
2023/09/17 04:40:13;;;;;;;27.70;23.00;;;;;;;19.46;100.00;100550.06;5058750;28;20135;-84
2023/09/17 04:42:43;;;;;;;32.15;25.77;;;;;;;19.47;100.00;100554.34;5063486;28;20122;-84
2023/09/17 04:45:12;;;;;;;32.45;25.08;;;;;;;19.44;100.00;100559.25;5059293;28;20055;-85
2023/09/17 04:47:39;;;;;;;34.33;25.05;;;;;;;19.43;100.00;100541.72;5059634;28;20140;-85
2023/09/17 04:50:10;;;;;;;29.77;24.35;;;;;;;19.41;100.00;100555.19;5060643;28;20045;-85
2023/09/17 04:52:36;;;;;;;28.80;24.73;;;;;;;19.28;100.00;100549.19;5058050;28;20083;-85
2023/09/17 04:55:03;;;;;;;31.58;25.52;;;;;;;19.23;100.00;100542.69;5057380;28;20434;-86
2023/09/17 04:57:30;;;;;;;31.92;24.70;;;;;;;19.29;100.00;100541.03;5056440;28;20056;-86
2023/09/17 04:59:56;;;;;;;33.63;24.80;;;;;;;19.19;100.00;100545.97;5063173;28;20088;-85
2023/09/17 05:02:24;;;;;;;31.75;25.65;;;;;;;19.15;100.00;100542.94;5060057;28;20108;-85
2023/09/17 05:04:51;;;;;;;33.95;25.42;;;;;;;19.05;100.00;100547.91;5061605;28;20053;-86
2023/09/17 05:07:29;;;;;;;31.58;26.50;;;;;;;19.15;100.00;100560.69;5059850;28;20072;-86
2023/09/17 05:09:56;;;;;;;32.20;25.13;;;;;;;19.03;100.00;100547.31;5060400;28;20140;-82
2023/09/17 05:12:32;;;;;;;37.05;27.02;;;;;;;19.12;100.00;100553.97;5060071;28;20041;-86
2023/09/17 05:15:02;;;;;;;33.17;26.15;;;;;;;19.15;100.00;100555.41;5059617;28;20106;-85
2023/09/17 05:17:31;;;;;;;33.60;26.60;;;;;;;19.11;100.00;100543.59;5060187;28;20113;-84
2023/09/17 05:19:57;;;;;;;31.38;26.92;;;;;;;19.15;100.00;100560.69;5061980;28;20049;-83
2023/09/17 05:22:30;;;;;;;33.72;27.67;;;;;;;19.12;100.00;100569.91;5060313;28;20045;-85
2023/09/17 05:24:57;;;;;;;36.67;26.52;;;;;;;19.11;100.00;100575.41;5064469;28;20044;-85
2023/09/17 05:27:24;;;;;;;32.45;25.88;;;;;;;19.15;100.00;100571.31;5055045;28;20395;-85
2023/09/17 05:29:51;;;;;;;32.03;26.33;;;;;;;19.22;100.00;100572.91;5064056;28;20048;-85
2023/09/17 05:32:20;;;;;;;32.88;27.10;;;;;;;19.12;100.00;100575.19;5060869;28;20120;-85
2023/09/17 05:35:03;;;;;;;31.00;25.17;;;;;;;19.15;100.00;100576.63;5063324;28;20072;-85
2023/09/17 05:37:46;;;;;;;29.50;24.70;;;;;;;19.19;100.00;100583.13;5056671;28;20107;-85
2023/09/17 05:40:12;;;;;;;32.38;25.67;;;;;;;19.10;100.00;100584.38;5060619;28;20425;-84
2023/09/17 05:42:39;;;;;;;27.05;22.98;;;;;;;19.03;100.00;100588.91;5063989;28;20063;-85
2023/09/17 05:45:06;;;;;;;27.88;22.80;;;;;;;19.00;100.00;100590.16;5064058;28;20543;-85
2023/09/17 05:47:33;;;;;;;25.98;21.02;;;;;;;19.07;100.00;100585.63;5060736;28;20477;-84
2023/09/17 05:50:01;;;;;;;27.77;21.63;;;;;;;19.04;100.00;100590.53;5061633;28;20108;-84
2023/09/17 05:52:27;;;;;;;28.77;23.27;;;;;;;18.97;100.00;100589.75;5062974;28;20105;-85
2023/09/17 05:54:55;;;;;;;26.95;23.13;;;;;;;19.01;100.00;100580.34;5073720;28;20558;-83
2023/09/17 05:57:21;;;;;;;24.60;21.52;;;;;;;19.06;100.00;100591.97;5064105;28;20083;-85
2023/09/17 05:59:48;;;;;;;26.40;23.15;;;;;;;19.07;100.00;100579.50;5066171;28;20076;-83
2023/09/17 06:02:14;;;;;;;26.02;22.42;;;;;;;19.15;100.00;100581.91;5063553;28;20116;-84
2023/09/17 06:04:41;;;;;;;25.77;21.27;;;;;;;19.25;100.00;100587.56;5063468;28;20139;-82
2023/09/17 06:07:09;;;;;;;27.23;22.23;;;;;;;19.38;100.00;100586.66;5071906;28;20068;-83
2023/09/17 06:09:36;;;;;;;28.30;21.77;;;;;;;19.44;100.00;100578.66;5064207;28;20049;-84
2023/09/17 06:12:03;;;;;;;28.35;21.60;;;;;;;19.60;100.00;100576.53;5066036;28;20049;-84
2023/09/17 06:14:30;;;;;;;25.35;20.65;;;;;;;19.83;100.00;100580.22;5071454;28;20064;-84
2023/09/17 06:16:57;;;;;;;23.15;19.45;;;;;;;20.42;100.00;100578.81;5066153;28;20053;-83
2023/09/17 06:19:23;;;;;;;20.63;18.33;;;;;;;20.97;100.00;100583.25;5067530;28;20170;-84
2023/09/17 06:21:50;;;;;;;23.23;16.80;;;;;;;21.42;100.00;100563.19;5066024;28;20057;-84
2023/09/17 06:24:22;;;;;;;20.08;15.15;;;;;;;21.88;100.00;100550.94;5064939;28;20040;-84
2023/09/17 06:26:49;;;;;;;15.70;13.68;;;;;;;22.13;100.00;100543.56;5070732;28;20078;-83
2023/09/17 06:29:16;;;;;;;16.92;13.68;;;;;;;22.64;100.00;100555.25;5068591;28;20047;-83
2023/09/17 06:31:44;;;;;;;18.83;13.50;;;;;;;23.36;100.00;100552.03;5067736;28;20041;-84
2023/09/17 06:34:17;;;;;;;16.30;12.68;;;;;;;24.14;97.41;100546.53;5068640;28;20049;-85
2023/09/17 06:37:09;;;;;;;15.55;13.20;;;;;;;24.67;92.85;100542.38;5067890;28;20493;-84
2023/09/17 06:39:45;;;;;;;17.27;12.77;;;;;;;25.25;90.20;100530.13;5066326;28;20178;-82
2023/09/17 06:42:15;;;;;;;12.77;11.13;;;;;;;25.63;87.88;100534.44;5066628;28;20049;-83
2023/09/17 06:44:42;;;;;;;12.38;10.90;;;;;;;25.67;86.98;100535.56;5064989;28;20059;-80
2023/09/17 06:47:13;;;;;;;12.63;10.57;;;;;;;25.48;85.17;100528.16;5067987;28;20094;-83
2023/09/17 06:49:40;;;;;;;15.57;10.98;;;;;;;25.58;85.27;100510.28;5063978;28;20059;-83
2023/09/17 06:52:16;;;;;;;11.90;9.75;;;;;;;25.92;84.28;100521.50;5062911;28;20064;-84
2023/09/17 06:55:25;;;;;;;11.15;9.77;;;;;;;25.32;84.72;100521.88;5062891;28;20049;-82
2023/09/17 06:57:52;;;;;;;11.30;9.60;;;;;;;25.22;84.32;100530.63;5062743;28;20465;-84
2023/09/17 07:00:20;;;;;;;14.85;9.48;;;;;;;25.64;83.94;100511.16;5059030;28;20128;-83
2023/09/17 07:02:55;;;;;;;11.05;8.60;;;;;;;26.30;83.12;100523.03;5057802;28;20052;-82
2023/09/17 07:05:24;;;;;;;9.93;8.50;;;;;;;26.09;82.97;100511.41;5057806;28;20052;-85
2023/09/17 07:11:35;;;;;;;9.38;8.10;;;;;;;26.71;80.53;100509.75;5248444;22;20043;-83
2023/09/17 07:14:05;;;;;;;9.40;8.38;;;;;;;26.45;79.84;100519.63;5103272;28;20067;-84
2023/09/17 07:16:35;;;;;;;8.55;7.72;;;;;;;26.90;79.05;100510.88;5103393;28;20040;-82
2023/09/17 07:19:07;;;;;;;9.65;7.97;;;;;;;26.74;79.22;100512.72;5103761;28;20043;-82
2023/09/17 07:22:22;;;;;;;12.02;8.10;;;;;;;26.92;78.29;100502.53;5103878;28;20051;-81
2023/09/17 07:25:07;;;;;;;9.40;7.85;;;;;;;26.55;78.97;100500.84;5103107;28;20068;-82
2023/09/17 07:27:48;;;;;;;10.13;8.05;;;;;;;26.38;78.95;100497.59;5114591;28;20043;-83
2023/09/17 07:30:17;;;;;;;8.70;7.50;;;;;;;26.62;79.40;100492.56;5124367;28;20047;-82
2023/09/17 07:33:12;;;;;;;13.30;8.05;;;;;;;27.32;77.42;100507.94;5124469;28;20058;-84
2023/09/17 07:35:56;;;;;;;7.68;6.82;;;;;;;27.42;76.62;100489.09;5122396;28;20043;-82
2023/09/17 07:41:58;;;;;;;11.65;7.70;;;;;;;27.19;75.16;100500.41;5132643;22;20060;-83
2023/09/17 07:44:53;;;;;;;8.70;7.80;;;;;;;27.53;76.61;100515.97;5095571;28;20063;-82
2023/09/17 07:47:27;;;;;;;8.75;7.03;;;;;;;27.57;76.22;100522.41;5106865;28;20085;-82
2023/09/17 07:50:03;;;;;;;10.38;7.15;;;;;;;27.56;75.31;100516.22;5101441;28;20056;-84
2023/09/17 07:53:12;;;;;;;9.18;6.32;;;;;;;27.30;75.47;100520.84;5077312;28;20048;-81
2023/09/17 07:56:03;;;;;;;7.60;6.65;;;;;;;27.38;75.00;100517.63;5085656;28;20498;-83
2023/09/17 08:01:40;;;;;;;8.90;6.60;;;;;;;26.90;77.14;100534.22;5046819;28;20068;-82
2023/09/17 08:04:14;;;;;;;7.53;6.32;;;;;;;27.20;75.85;100511.97;5038486;28;20049;-82
2023/09/17 08:07:01;;;;;;;8.98;5.82;;;;;;;26.90;76.41;100528.84;5044796;28;20041;-82
2023/09/17 08:09:35;;;;;;;6.95;5.97;;;;;;;26.69;76.32;100526.13;5044882;28;20046;-83
2023/09/17 08:17:46;;;;;;;10.05;5.75;;;;;;;26.47;77.07;100516.69;5047404;28;20065;-81
2023/09/17 08:20:15;;;;;;;8.25;6.20;;;;;;;25.99;78.84;100527.47;5053330;28;20045;-83
2023/09/17 08:22:45;;;;;;;10.02;6.15;;;;;;;26.05;77.97;100521.03;5042932;28;20049;-81
2023/09/17 08:25:20;;;;;;;7.88;6.00;;;;;;;26.58;78.22;100532.53;5041587;28;20460;-83
2023/09/17 08:27:47;;;;;;;8.65;6.53;;;;;;;26.66;77.28;100532.00;5051315;28;20403;-84
2023/09/17 08:30:15;;;;;;;7.85;5.97;;;;;;;26.20;76.88;100519.50;5062523;28;20471;-83
2023/09/17 08:33:01;;;;;;;11.32;6.18;;;;;;;26.43;77.95;100527.13;5065623;28;20102;-81
2023/09/17 08:35:36;;;;;;;8.23;5.75;;;;;;;26.07;79.00;100536.84;5029570;28;20076;-83
2023/09/17 08:42:54;;;;;;;;;;;;;;;;;;;;;
2023/09/17 08:45:31;;;;;;;;;;;;;;;27.33;73.23;100509.56;5042237;28;20037;-81
2023/09/17 08:56:48;;;;;;;7.45;5.60;;;;;;;26.49;76.77;100525.25;5063703;28;20067;-84
2023/09/17 09:00:03;;;;;;;;;;;;;;;;;;;;;
2023/09/17 09:02:56;;;;;;;7.75;5.97;;;;;;;26.49;76.48;100522.56;5049935;28;20053;-85
2023/09/17 09:05:32;;;;;;;6.97;6.28;;;;;;;26.98;75.36;100520.28;5070061;28;20056;-84
2023/09/17 09:08:05;;;;;;;7.65;5.85;;;;;;;27.17;75.85;100531.31;5098140;22;20048;-80
2023/09/17 09:10:37;;;;;;;8.60;6.38;;;;;;;25.69;76.88;100519.22;5077488;28;20056;-80
2023/09/17 09:13:08;;;;;;;9.93;6.47;;;;;;;26.04;78.12;100532.81;5085288;28;20111;-79
2023/09/17 09:15:47;;;;;;;7.55;6.18;;;;;;;25.94;78.89;100529.31;5081726;28;20052;-79
2023/09/17 09:18:24;;;;;;;7.95;6.30;;;;;;;26.35;77.66;100524.94;5083201;28;20121;-79
2023/09/17 09:21:08;;;;;;;7.80;6.32;;;;;;;25.68;77.88;100515.72;5084940;28;20055;-79
2023/09/17 09:24:00;;;;;;;7.35;6.45;;;;;;;25.83;79.01;100554.44;5075852;28;20045;-80
2023/09/17 09:26:40;;;;;;;10.00;6.57;;;;;;;25.86;78.43;100530.59;5081382;28;20056;-80
2023/09/17 09:29:08;;;;;;;7.13;6.32;;;;;;;25.57;78.29;100518.56;5075318;28;20084;-80
2023/09/17 09:31:43;;;;;;;7.97;6.53;;;;;;;25.82;79.57;100550.13;5076720;28;20049;-80
2023/09/17 09:34:13;;;;;;;7.05;6.35;;;;;;;26.07;79.37;100518.88;5078074;28;20057;-81
2023/09/17 09:36:44;;;;;;;6.75;6.05;;;;;;;25.99;78.46;100516.72;5078248;28;20079;-80
2023/09/17 09:39:24;;;;;;;8.52;6.40;;;;;;;25.91;78.66;100511.84;5077269;28;20051;-79
2023/09/17 09:42:00;;;;;;;10.30;6.25;;;;;;;26.19;78.46;100532.09;5078341;28;20075;-81
2023/09/17 09:44:36;;;;;;;6.78;5.90;;;;;;;26.00;78.09;100528.22;5078948;28;20067;-80
2023/09/17 09:47:14;;;;;;;7.03;5.97;;;;;;;26.22;78.21;100509.31;5077570;28;20044;-80
2023/09/17 09:49:46;;;;;;;6.60;5.82;;;;;;;26.05;77.46;100515.66;5077713;28;20049;-80
2023/09/17 09:52:17;;;;;;;7.22;5.97;;;;;;;26.45;76.17;100519.63;5077434;28;20495;-81
2023/09/17 09:54:48;;;;;;;7.15;6.07;;;;;;;26.06;76.78;100522.63;5078182;28;20076;-81
2023/09/17 09:57:16;;;;;;;7.47;5.57;;;;;;;26.17;77.28;100526.19;5082699;28;20079;-81
2023/09/17 09:59:52;;;;;;;7.97;5.57;;;;;;;26.38;75.61;100508.34;5079428;28;20049;-81
2023/09/17 10:02:20;;;;;;;8.98;6.30;;;;;;;26.54;75.97;100518.03;5078546;28;20056;-81
2023/09/17 10:04:57;;;;;;;;;;;;;;;;;;;;;
2023/09/17 10:07:31;;;;;;;7.22;5.68;;;;;;;26.41;75.81;100507.81;5070084;28;20108;-80
2023/09/17 10:12:55;;;;;;;7.90;5.85;;;;;;;26.54;76.48;100487.69;5078228;28;20071;-81
2023/09/17 10:15:36;;;;;;;8.30;5.93;;;;;;;26.70;74.18;100483.97;5078056;28;20455;-81
2023/09/17 10:18:17;;;;;;;9.13;6.23;;;;;;;26.42;74.33;100474.53;5079074;28;20076;-81
2023/09/17 10:21:04;;;;;;;6.90;5.40;;;;;;;26.52;73.18;100477.22;5080298;28;20520;-82
2023/09/17 10:23:37;;;;;;;9.73;6.22;;;;;;;26.91;74.48;100496.38;5079051;28;20052;-81
2023/09/17 10:26:10;;;;;;;6.40;5.80;;;;;;;26.76;75.24;100493.66;5083208;28;20045;-81
2023/09/17 10:29:06;;;;;;;7.07;5.45;;;;;;;26.90;72.96;100491.25;5079147;28;20106;-81
2023/09/17 10:31:46;;;;;;;5.82;5.20;;;;;;;26.93;73.28;100496.09;5071821;28;20058;-80
2023/09/17 10:34:30;;;;;;;7.88;5.93;;;;;;;27.04;73.33;100484.31;5082760;28;20123;-80
2023/09/17 10:37:00;;;;;;;7.50;5.45;;;;;;;26.82;72.64;100486.41;5079148;28;20067;-81
2023/09/17 10:39:30;;;;;;;7.13;5.82;;;;;;;26.87;73.16;100463.06;5086906;28;20048;-81
2023/09/17 10:42:46;;;;;;;6.05;5.28;;;;;;;27.12;71.30;100448.84;5079389;28;20052;-81
2023/09/17 10:45:34;;;;;;;6.05;5.45;;;;;;;27.27;71.80;100480.28;5080533;28;20149;-80
2023/09/17 10:48:18;;;;;;;5.93;5.32;;;;;;;27.39;71.22;100486.97;5076007;28;20056;-81
2023/09/17 10:50:59;;;;;;;9.23;5.13;;;;;;;27.36;70.69;100454.47;5078119;28;20052;-81
2023/09/17 10:54:05;;;;;;;6.32;5.20;;;;;;;27.29;71.93;100460.13;5073296;28;20059;-81
2023/09/17 10:59:27;;;;;;;5.75;5.15;;;;;;;27.30;71.32;100456.38;5075612;28;20086;-81
2023/09/17 11:04:43;;;;;;;6.00;5.00;;;;;;;27.34;70.33;100440.50;5071745;28;20488;-81
2023/09/17 11:07:16;;;;;;;6.47;5.20;;;;;;;27.46;71.09;100473.25;5076479;28;20490;-80
2023/09/17 11:09:45;;;;;;;5.82;5.00;;;;;;;27.76;70.32;100445.53;5079622;28;20167;-81
2023/09/17 11:12:13;;;;;;;8.38;5.00;;;;;;;27.74;70.13;100443.13;5077397;28;20052;-80
2023/09/17 11:14:57;;;;;;;7.60;5.30;;;;;;;27.42;69.12;100437.25;5077593;28;20048;-80
2023/09/17 11:17:31;;;;;;;7.35;5.32;;;;;;;27.42;69.78;100459.53;5076708;28;20049;-80
2023/09/17 11:20:07;;;;;;;6.88;5.18;;;;;;;27.10;69.90;100453.69;5078788;28;20071;-80
2023/09/17 11:22:36;;;;;;;7.78;5.20;;;;;;;27.40;69.68;100461.72;5080277;28;20060;-80
2023/09/17 11:25:03;;;;;;;5.97;5.25;;;;;;;27.52;69.85;100458.72;5081738;28;20072;-81
2023/09/17 11:27:46;;;;;;;5.93;4.90;;;;;;;27.57;69.59;100444.47;5080282;28;20483;-81
2023/09/17 11:30:19;;;;;;;8.80;5.53;;;;;;;27.88;69.39;100456.78;5071139;28;20048;-81
2023/09/17 11:32:53;;;;;;;8.38;5.13;;;;;;;27.74;68.14;100447.69;5080081;28;20052;-81
2023/09/17 11:35:29;;;;;;;6.88;5.20;;;;;;;27.98;69.27;100456.72;5078969;28;20121;-81
2023/09/17 11:38:13;;;;;;;7.53;4.75;;;;;;;27.85;67.85;100435.03;5078605;28;20048;-81
2023/09/17 11:41:04;;;;;;;7.28;5.13;;;;;;;27.77;66.80;100422.13;5082626;28;20048;-81
2023/09/17 11:43:34;;;;;;;10.30;4.88;;;;;;;27.34;67.04;100405.59;5077504;28;20055;-80
2023/09/17 11:46:04;;;;;;;6.28;4.60;;;;;;;27.96;68.82;100441.94;5079040;28;20045;-80
2023/09/17 11:48:33;;;;;;;5.53;4.95;;;;;;;28.04;67.94;100450.25;5078339;28;20072;-81
2023/09/17 11:51:23;;;;;;;8.40;5.10;;;;;;;27.94;66.35;100428.75;5078014;28;20107;-81
2023/09/17 11:53:55;;;;;;;5.20;4.68;;;;;;;27.87;66.76;100422.91;5078710;28;20048;-80
2023/09/17 11:56:29;;;;;;;6.60;4.68;;;;;;;28.32;66.61;100443.41;5078028;28;20111;-80
2023/09/17 11:59:08;;;;;;;8.07;4.82;;;;;;;28.30;67.00;100447.47;5078734;28;20127;-81
2023/09/17 12:01:36;;;;;;;7.47;5.10;;;;;;;28.08;66.29;100428.97;5071540;28;20056;-80
2023/09/17 12:04:10;;;;;;;6.30;5.10;;;;;;;28.02;66.73;100433.56;5077738;28;20075;-80
2023/09/17 12:06:43;;;;;;;8.73;4.90;;;;;;;28.11;66.46;100433.00;5078670;28;20209;-80
2023/09/17 12:12:19;;;;;;;5.20;4.70;;;;;;;28.42;65.49;100443.34;5073044;28;20056;-80
2023/09/17 12:14:47;;;;;;;7.80;4.60;;;;;;;28.26;63.50;100424.88;5081778;28;20048;-81
2023/09/17 12:17:14;;;;;;;5.40;4.78;;;;;;;28.04;64.96;100442.19;5079422;28;20075;-81
2023/09/17 12:19:41;;;;;;;5.15;4.50;;;;;;;28.07;64.95;100438.13;5079886;28;20167;-79
2023/09/17 12:22:10;;;;;;;9.65;5.72;;;;;;;28.05;65.81;100440.28;5073307;28;20053;-81
2023/09/17 12:25:02;;;;;;;6.07;4.60;;;;;;;28.21;65.94;100438.34;5085750;28;20204;-80
2023/09/17 12:27:35;;;;;;;6.55;4.60;;;;;;;28.19;65.36;100416.28;5077822;28;20111;-80
2023/09/17 12:30:02;;;;;;;;;;;;;;;28.38;65.03;100422.63;5088457;28;20436;-80
2023/09/17 12:32:31;;;;;;;5.57;4.53;;;;;;;28.29;65.00;100421.66;5088639;28;19934;-80
2023/09/17 12:34:58;;;;;;;5.20;4.53;;;;;;;28.24;65.04;100418.97;5087755;28;20086;-80
2023/09/17 12:37:26;;;;;;;5.25;4.05;;;;;;;28.12;65.96;100427.34;5072360;28;20076;-80
2023/09/17 12:39:54;;;;;;;6.97;4.70;;;;;;;28.00;64.69;100416.91;5079550;28;20123;-79
2023/09/17 12:42:21;;;;;;;6.05;4.60;;;;;;;27.96;65.13;100418.53;5081454;28;20467;-79
2023/09/17 12:44:48;;;;;;;5.53;4.20;;;;;;;28.24;64.50;100427.06;5085762;28;20055;-80
2023/09/17 12:47:15;;;;;;;7.40;4.78;;;;;;;28.28;64.90;100425.41;5082725;28;20107;-81
2023/09/17 12:49:43;;;;;;;5.18;4.63;;;;;;;28.15;65.17;100423.31;5085239;28;20044;-80
2023/09/17 12:52:11;;;;;;;5.28;4.43;;;;;;;28.26;65.24;100424.88;5081554;28;20266;-81
2023/09/17 12:54:39;;;;;;;5.25;4.75;;;;;;;28.21;63.36;100408.75;5081395;28;20045;-81
2023/09/17 12:57:07;;;;;;;6.47;4.60;;;;;;;28.22;65.59;100429.22;5084016;28;20139;-80
2023/09/17 12:59:37;;;;;;;5.03;4.53;;;;;;;28.27;65.42;100429.19;5088524;28;20117;-80
2023/09/17 13:02:06;;;;;;;5.35;4.20;;;;;;;28.28;64.13;100411.97;5088861;28;20456;-80
2023/09/17 13:04:34;;;;;;;7.25;4.55;;;;;;;28.47;64.27;100420.97;5082650;28;20080;-81
2023/09/17 13:07:01;;;;;;;5.32;4.45;;;;;;;28.53;64.53;100419.03;5082193;28;20048;-82
2023/09/17 13:09:28;;;;;;;6.70;4.45;;;;;;;28.60;64.04;100414.16;5082112;28;20079;-81
2023/09/17 13:11:56;;;;;;;5.50;4.50;;;;;;;28.72;62.77;100398.44;5083319;28;20059;-80
2023/09/17 13:14:23;;;;;;;5.90;4.32;;;;;;;28.74;64.81;100424.00;5081721;28;20041;-80
2023/09/17 13:16:50;;;;;;;5.10;4.10;;;;;;;28.68;62.32;100395.53;5082480;28;20080;-80
2023/09/17 13:19:17;;;;;;;5.03;4.40;;;;;;;28.43;60.97;100393.00;5080899;28;20306;-81
2023/09/17 13:21:44;;;;;;;5.97;4.47;;;;;;;28.55;63.25;100395.34;5080905;28;20112;-81
2023/09/17 13:24:11;;;;;;;5.55;4.30;;;;;;;28.63;62.43;100387.47;5080837;28;20108;-80
2023/09/17 13:26:38;;;;;;;5.38;4.70;;;;;;;28.84;62.92;100395.41;5079949;28;20053;-81